sensor_id;sensor_type;location;lat;lon;timestamp;P1;durP1;ratioP1;P2;durP2;ratioP2
14849;SDS011;7517;48.400;11.770;2023-03-19T00:02:05;7.07;;;5.97;;
14849;SDS011;7517;48.400;11.770;2023-03-19T00:04:33;10.47;;;6.03;;
14849;SDS011;7517;48.400;11.770;2023-03-19T00:07:02;9.10;;;6.53;;
14849;SDS011;7517;48.400;11.770;2023-03-19T00:09:30;9.10;;;6.23;;
14849;SDS011;7517;48.400;11.770;2023-03-19T00:11:57;7.47;;;5.60;;
14849;SDS011;7517;48.400;11.770;2023-03-19T00:14:25;7.03;;;6.30;;
14849;SDS011;7517;48.400;11.770;2023-03-19T00:16:52;9.63;;;6.53;;
14849;SDS011;7517;48.400;11.770;2023-03-19T00:19:19;7.30;;;6.60;;
14849;SDS011;7517;48.400;11.770;2023-03-19T00:21:46;9.23;;;6.43;;
14849;SDS011;7517;48.400;11.770;2023-03-19T00:24:16;6.70;;;5.73;;
14849;SDS011;7517;48.400;11.770;2023-03-19T00:26:43;8.27;;;6.53;;
14849;SDS011;7517;48.400;11.770;2023-03-19T00:29:11;7.60;;;6.23;;
14849;SDS011;7517;48.400;11.770;2023-03-19T00:31:39;7.33;;;5.83;;
14849;SDS011;7517;48.400;11.770;2023-03-19T00:34:07;7.93;;;6.23;;
14849;SDS011;7517;48.400;11.770;2023-03-19T00:36:35;10.03;;;6.17;;
14849;SDS011;7517;48.400;11.770;2023-03-19T00:39:06;7.27;;;6.10;;
14849;SDS011;7517;48.400;11.770;2023-03-19T00:41:34;8.00;;;6.60;;
14849;SDS011;7517;48.400;11.770;2023-03-19T00:44:02;9.03;;;6.43;;
14849;SDS011;7517;48.400;11.770;2023-03-19T00:46:30;8.80;;;6.23;;
14849;SDS011;7517;48.400;11.770;2023-03-19T00:48:58;7.70;;;5.67;;
14849;SDS011;7517;48.400;11.770;2023-03-19T00:51:25;8.67;;;6.23;;
14849;SDS011;7517;48.400;11.770;2023-03-19T00:53:52;9.30;;;6.70;;
14849;SDS011;7517;48.400;11.770;2023-03-19T00:56:19;7.83;;;5.90;;
14849;SDS011;7517;48.400;11.770;2023-03-19T00:58:48;8.43;;;6.10;;
14849;SDS011;7517;48.400;11.770;2023-03-19T01:01:16;8.43;;;6.60;;
14849;SDS011;7517;48.400;11.770;2023-03-19T01:03:44;7.80;;;6.60;;
14849;SDS011;7517;48.400;11.770;2023-03-19T01:06:11;7.93;;;5.97;;
14849;SDS011;7517;48.400;11.770;2023-03-19T01:08:39;8.13;;;5.83;;
14849;SDS011;7517;48.400;11.770;2023-03-19T01:11:07;9.37;;;6.23;;
14849;SDS011;7517;48.400;11.770;2023-03-19T01:13:38;8.17;;;6.37;;
14849;SDS011;7517;48.400;11.770;2023-03-19T01:16:08;7.93;;;6.37;;
14849;SDS011;7517;48.400;11.770;2023-03-19T01:18:35;6.60;;;5.90;;
14849;SDS011;7517;48.400;11.770;2023-03-19T01:21:03;8.80;;;6.23;;
14849;SDS011;7517;48.400;11.770;2023-03-19T01:23:32;7.00;;;5.60;;
14849;SDS011;7517;48.400;11.770;2023-03-19T01:25:59;8.27;;;6.23;;
14849;SDS011;7517;48.400;11.770;2023-03-19T01:28:27;8.67;;;6.33;;
14849;SDS011;7517;48.400;11.770;2023-03-19T01:30:57;10.07;;;6.00;;
14849;SDS011;7517;48.400;11.770;2023-03-19T01:33:27;8.03;;;6.10;;
14849;SDS011;7517;48.400;11.770;2023-03-19T01:35:54;7.07;;;6.07;;
14849;SDS011;7517;48.400;11.770;2023-03-19T01:38:23;9.20;;;7.20;;
14849;SDS011;7517;48.400;11.770;2023-03-19T01:40:51;6.93;;;6.10;;
14849;SDS011;7517;48.400;11.770;2023-03-19T01:43:20;7.93;;;6.70;;
14849;SDS011;7517;48.400;11.770;2023-03-19T01:45:50;7.50;;;6.40;;
14849;SDS011;7517;48.400;11.770;2023-03-19T01:48:24;7.43;;;6.37;;
14849;SDS011;7517;48.400;11.770;2023-03-19T01:51:04;8.43;;;6.57;;
14849;SDS011;7517;48.400;11.770;2023-03-19T01:53:35;9.77;;;7.17;;
14849;SDS011;7517;48.400;11.770;2023-03-19T01:56:08;8.07;;;7.00;;
14849;SDS011;7517;48.400;11.770;2023-03-19T01:58:41;9.30;;;6.47;;
14849;SDS011;7517;48.400;11.770;2023-03-19T02:01:14;7.30;;;6.43;;
14849;SDS011;7517;48.400;11.770;2023-03-19T02:03:46;8.50;;;7.07;;
14849;SDS011;7517;48.400;11.770;2023-03-19T02:06:15;13.33;;;7.90;;
14849;SDS011;7517;48.400;11.770;2023-03-19T02:08:45;11.07;;;7.93;;
14849;SDS011;7517;48.400;11.770;2023-03-19T02:11:14;8.97;;;7.43;;
14849;SDS011;7517;48.400;11.770;2023-03-19T02:13:41;10.10;;;7.83;;
14849;SDS011;7517;48.400;11.770;2023-03-19T02:16:09;10.53;;;7.33;;
14849;SDS011;7517;48.400;11.770;2023-03-19T02:18:36;8.77;;;6.97;;
14849;SDS011;7517;48.400;11.770;2023-03-19T02:21:06;9.67;;;7.03;;
14849;SDS011;7517;48.400;11.770;2023-03-19T02:23:37;9.23;;;7.43;;
14849;SDS011;7517;48.400;11.770;2023-03-19T02:26:16;8.40;;;7.17;;
14849;SDS011;7517;48.400;11.770;2023-03-19T02:28:47;9.70;;;6.20;;
14849;SDS011;7517;48.400;11.770;2023-03-19T02:31:17;6.33;;;5.70;;
14849;SDS011;7517;48.400;11.770;2023-03-19T02:33:55;6.23;;;5.13;;
14849;SDS011;7517;48.400;11.770;2023-03-19T02:36:28;7.60;;;5.77;;
14849;SDS011;7517;48.400;11.770;2023-03-19T02:39:03;5.90;;;5.30;;
14849;SDS011;7517;48.400;11.770;2023-03-19T02:41:37;5.70;;;5.10;;
14849;SDS011;7517;48.400;11.770;2023-03-19T02:44:06;5.77;;;5.07;;
14849;SDS011;7517;48.400;11.770;2023-03-19T02:46:37;5.53;;;4.93;;
14849;SDS011;7517;48.400;11.770;2023-03-19T02:49:04;6.17;;;4.70;;
14849;SDS011;7517;48.400;11.770;2023-03-19T02:51:32;6.27;;;4.97;;
14849;SDS011;7517;48.400;11.770;2023-03-19T02:53:59;8.73;;;5.60;;
14849;SDS011;7517;48.400;11.770;2023-03-19T02:56:27;6.20;;;4.87;;
14849;SDS011;7517;48.400;11.770;2023-03-19T02:58:57;6.10;;;5.50;;
14849;SDS011;7517;48.400;11.770;2023-03-19T03:01:24;8.43;;;5.17;;
14849;SDS011;7517;48.400;11.770;2023-03-19T03:03:53;6.03;;;5.17;;
14849;SDS011;7517;48.400;11.770;2023-03-19T03:06:21;6.53;;;5.73;;
14849;SDS011;7517;48.400;11.770;2023-03-19T03:08:48;6.03;;;5.37;;
14849;SDS011;7517;48.400;11.770;2023-03-19T03:11:16;7.13;;;5.50;;
14849;SDS011;7517;48.400;11.770;2023-03-19T03:13:43;7.93;;;5.53;;
14849;SDS011;7517;48.400;11.770;2023-03-19T03:16:12;6.47;;;5.80;;
14849;SDS011;7517;48.400;11.770;2023-03-19T03:18:40;6.57;;;5.40;;
14849;SDS011;7517;48.400;11.770;2023-03-19T03:21:07;6.97;;;5.33;;
14849;SDS011;7517;48.400;11.770;2023-03-19T03:23:35;6.10;;;5.47;;
14849;SDS011;7517;48.400;11.770;2023-03-19T03:26:03;6.93;;;5.40;;
14849;SDS011;7517;48.400;11.770;2023-03-19T03:28:30;8.17;;;5.90;;
14849;SDS011;7517;48.400;11.770;2023-03-19T03:30:58;6.73;;;5.27;;
14849;SDS011;7517;48.400;11.770;2023-03-19T03:33:27;8.10;;;5.63;;
14849;SDS011;7517;48.400;11.770;2023-03-19T03:35:55;7.00;;;5.50;;
14849;SDS011;7517;48.400;11.770;2023-03-19T03:38:22;7.63;;;5.50;;
14849;SDS011;7517;48.400;11.770;2023-03-19T03:40:50;7.50;;;5.47;;
14849;SDS011;7517;48.400;11.770;2023-03-19T03:43:18;8.07;;;6.07;;
14849;SDS011;7517;48.400;11.770;2023-03-19T03:45:46;6.37;;;5.57;;
14849;SDS011;7517;48.400;11.770;2023-03-19T03:48:14;8.20;;;5.87;;
14849;SDS011;7517;48.400;11.770;2023-03-19T03:50:44;7.23;;;5.20;;
14849;SDS011;7517;48.400;11.770;2023-03-19T03:53:11;5.13;;;4.63;;
14849;SDS011;7517;48.400;11.770;2023-03-19T03:55:39;5.00;;;4.50;;
14849;SDS011;7517;48.400;11.770;2023-03-19T03:58:07;5.13;;;4.17;;
14849;SDS011;7517;48.400;11.770;2023-03-19T04:00:34;5.97;;;4.27;;
14849;SDS011;7517;48.400;11.770;2023-03-19T04:03:02;6.73;;;3.90;;
14849;SDS011;7517;48.400;11.770;2023-03-19T04:05:29;5.93;;;4.30;;
14849;SDS011;7517;48.400;11.770;2023-03-19T04:07:58;4.90;;;4.13;;
14849;SDS011;7517;48.400;11.770;2023-03-19T04:10:27;3.80;;;3.40;;
14849;SDS011;7517;48.400;11.770;2023-03-19T04:12:55;5.77;;;4.50;;
14849;SDS011;7517;48.400;11.770;2023-03-19T04:15:23;4.63;;;3.63;;
14849;SDS011;7517;48.400;11.770;2023-03-19T04:17:50;4.60;;;3.60;;
14849;SDS011;7517;48.400;11.770;2023-03-19T04:20:18;6.30;;;4.33;;
14849;SDS011;7517;48.400;11.770;2023-03-19T04:22:47;8.07;;;5.33;;
14849;SDS011;7517;48.400;11.770;2023-03-19T04:25:17;6.43;;;4.67;;
14849;SDS011;7517;48.400;11.770;2023-03-19T04:27:46;4.47;;;4.07;;
14849;SDS011;7517;48.400;11.770;2023-03-19T04:30:18;4.97;;;4.47;;
14849;SDS011;7517;48.400;11.770;2023-03-19T04:32:46;4.50;;;4.10;;
14849;SDS011;7517;48.400;11.770;2023-03-19T04:35:14;4.77;;;4.07;;
14849;SDS011;7517;48.400;11.770;2023-03-19T04:37:42;6.03;;;4.40;;
14849;SDS011;7517;48.400;11.770;2023-03-19T04:40:12;4.73;;;3.87;;
14849;SDS011;7517;48.400;11.770;2023-03-19T04:42:42;5.40;;;3.80;;
14849;SDS011;7517;48.400;11.770;2023-03-19T04:45:10;4.43;;;4.03;;
14849;SDS011;7517;48.400;11.770;2023-03-19T04:47:38;5.97;;;3.67;;
14849;SDS011;7517;48.400;11.770;2023-03-19T04:50:07;4.90;;;3.97;;
14849;SDS011;7517;48.400;11.770;2023-03-19T04:52:36;4.20;;;3.70;;
14849;SDS011;7517;48.400;11.770;2023-03-19T04:55:05;7.57;;;4.67;;
14849;SDS011;7517;48.400;11.770;2023-03-19T04:57:33;4.67;;;4.17;;
14849;SDS011;7517;48.400;11.770;2023-03-19T05:00:02;5.13;;;4.17;;
14849;SDS011;7517;48.400;11.770;2023-03-19T05:02:31;7.50;;;3.80;;
14849;SDS011;7517;48.400;11.770;2023-03-19T05:04:59;4.47;;;4.07;;
14849;SDS011;7517;48.400;11.770;2023-03-19T05:07:26;4.70;;;4.07;;
14849;SDS011;7517;48.400;11.770;2023-03-19T05:09:53;8.10;;;4.10;;
14849;SDS011;7517;48.400;11.770;2023-03-19T05:12:21;6.97;;;4.43;;
14849;SDS011;7517;48.400;11.770;2023-03-19T05:14:48;5.00;;;4.20;;
14849;SDS011;7517;48.400;11.770;2023-03-19T05:17:17;4.90;;;4.40;;
14849;SDS011;7517;48.400;11.770;2023-03-19T05:19:45;4.10;;;3.70;;
14849;SDS011;7517;48.400;11.770;2023-03-19T05:22:12;4.67;;;4.03;;
14849;SDS011;7517;48.400;11.770;2023-03-19T05:24:40;6.13;;;4.20;;
14849;SDS011;7517;48.400;11.770;2023-03-19T05:27:07;4.33;;;3.93;;
14849;SDS011;7517;48.400;11.770;2023-03-19T05:29:35;7.57;;;4.23;;
14849;SDS011;7517;48.400;11.770;2023-03-19T05:32:02;6.50;;;4.83;;
14849;SDS011;7517;48.400;11.770;2023-03-19T05:34:40;6.17;;;4.57;;
14849;SDS011;7517;48.400;11.770;2023-03-19T05:37:07;4.90;;;4.50;;
14849;SDS011;7517;48.400;11.770;2023-03-19T05:39:35;5.03;;;4.40;;
14849;SDS011;7517;48.400;11.770;2023-03-19T05:42:03;5.97;;;4.87;;
14849;SDS011;7517;48.400;11.770;2023-03-19T05:44:31;5.57;;;4.87;;
14849;SDS011;7517;48.400;11.770;2023-03-19T05:46:58;5.30;;;4.73;;
14849;SDS011;7517;48.400;11.770;2023-03-19T05:49:26;5.50;;;4.53;;
14849;SDS011;7517;48.400;11.770;2023-03-19T05:51:55;6.10;;;5.13;;
14849;SDS011;7517;48.400;11.770;2023-03-19T05:54:22;5.97;;;4.70;;
14849;SDS011;7517;48.400;11.770;2023-03-19T05:56:50;6.50;;;4.80;;
14849;SDS011;7517;48.400;11.770;2023-03-19T05:59:17;5.77;;;4.73;;
14849;SDS011;7517;48.400;11.770;2023-03-19T06:01:45;5.10;;;4.57;;
14849;SDS011;7517;48.400;11.770;2023-03-19T06:04:12;5.83;;;5.07;;
14849;SDS011;7517;48.400;11.770;2023-03-19T06:06:40;5.67;;;5.13;;
14849;SDS011;7517;48.400;11.770;2023-03-19T06:09:09;7.77;;;4.97;;
14849;SDS011;7517;48.400;11.770;2023-03-19T06:11:36;4.93;;;4.53;;
14849;SDS011;7517;48.400;11.770;2023-03-19T06:14:04;5.47;;;4.73;;
14849;SDS011;7517;48.400;11.770;2023-03-19T06:16:32;5.20;;;4.67;;
14849;SDS011;7517;48.400;11.770;2023-03-19T06:19:00;7.73;;;5.30;;
14849;SDS011;7517;48.400;11.770;2023-03-19T06:21:27;9.23;;;5.43;;
14849;SDS011;7517;48.400;11.770;2023-03-19T06:23:55;6.27;;;5.20;;
14849;SDS011;7517;48.400;11.770;2023-03-19T06:26:24;6.90;;;4.80;;
14849;SDS011;7517;48.400;11.770;2023-03-19T06:28:52;6.00;;;5.03;;
14849;SDS011;7517;48.400;11.770;2023-03-19T06:31:20;5.53;;;4.80;;
14849;SDS011;7517;48.400;11.770;2023-03-19T06:33:47;6.77;;;5.37;;
14849;SDS011;7517;48.400;11.770;2023-03-19T06:36:15;5.90;;;5.30;;
14849;SDS011;7517;48.400;11.770;2023-03-19T06:38:43;5.87;;;5.30;;
14849;SDS011;7517;48.400;11.770;2023-03-19T06:41:10;6.70;;;5.33;;
14849;SDS011;7517;48.400;11.770;2023-03-19T06:43:39;7.27;;;5.80;;
14849;SDS011;7517;48.400;11.770;2023-03-19T06:46:07;5.33;;;4.53;;
14849;SDS011;7517;48.400;11.770;2023-03-19T06:48:35;6.27;;;5.50;;
14849;SDS011;7517;48.400;11.770;2023-03-19T06:51:02;6.00;;;5.37;;
14849;SDS011;7517;48.400;11.770;2023-03-19T06:53:30;6.03;;;5.40;;
14849;SDS011;7517;48.400;11.770;2023-03-19T06:55:58;6.70;;;6.00;;
14849;SDS011;7517;48.400;11.770;2023-03-19T06:58:25;6.37;;;5.77;;
14849;SDS011;7517;48.400;11.770;2023-03-19T07:00:54;6.73;;;5.87;;
14849;SDS011;7517;48.400;11.770;2023-03-19T07:03:22;6.63;;;5.80;;
14849;SDS011;7517;48.400;11.770;2023-03-19T07:05:49;7.07;;;5.47;;
14849;SDS011;7517;48.400;11.770;2023-03-19T07:08:17;7.00;;;5.63;;
14849;SDS011;7517;48.400;11.770;2023-03-19T07:10:45;6.60;;;5.40;;
14849;SDS011;7517;48.400;11.770;2023-03-19T07:13:12;6.53;;;5.67;;
14849;SDS011;7517;48.400;11.770;2023-03-19T07:15:39;8.00;;;6.27;;
14849;SDS011;7517;48.400;11.770;2023-03-19T07:18:08;9.80;;;5.47;;
14849;SDS011;7517;48.400;11.770;2023-03-19T07:20:36;6.60;;;5.40;;
14849;SDS011;7517;48.400;11.770;2023-03-19T07:23:03;5.93;;;5.33;;
14849;SDS011;7517;48.400;11.770;2023-03-19T07:25:31;5.83;;;5.23;;
14849;SDS011;7517;48.400;11.770;2023-03-19T07:27:58;6.73;;;5.37;;
14849;SDS011;7517;48.400;11.770;2023-03-19T07:30:26;5.90;;;5.33;;
14849;SDS011;7517;48.400;11.770;2023-03-19T07:32:53;12.97;;;5.80;;
14849;SDS011;7517;48.400;11.770;2023-03-19T07:35:22;10.03;;;5.90;;
14849;SDS011;7517;48.400;11.770;2023-03-19T07:37:50;6.47;;;5.43;;
14849;SDS011;7517;48.400;11.770;2023-03-19T07:40:17;7.40;;;5.37;;
14849;SDS011;7517;48.400;11.770;2023-03-19T07:42:44;6.07;;;5.47;;
14849;SDS011;7517;48.400;11.770;2023-03-19T07:45:12;5.97;;;4.80;;
14849;SDS011;7517;48.400;11.770;2023-03-19T07:47:39;5.80;;;5.20;;
14849;SDS011;7517;48.400;11.770;2023-03-19T07:50:07;6.07;;;5.40;;
14849;SDS011;7517;48.400;11.770;2023-03-19T07:52:37;6.00;;;5.33;;
14849;SDS011;7517;48.400;11.770;2023-03-19T07:55:05;6.13;;;5.23;;
14849;SDS011;7517;48.400;11.770;2023-03-19T07:57:33;6.20;;;5.60;;
14849;SDS011;7517;48.400;11.770;2023-03-19T08:00:00;6.33;;;5.73;;
14849;SDS011;7517;48.400;11.770;2023-03-19T08:02:28;6.77;;;5.13;;
14849;SDS011;7517;48.400;11.770;2023-03-19T08:04:55;7.20;;;5.90;;
14849;SDS011;7517;48.400;11.770;2023-03-19T08:07:26;5.70;;;4.93;;
14849;SDS011;7517;48.400;11.770;2023-03-19T08:09:55;6.43;;;5.17;;
14849;SDS011;7517;48.400;11.770;2023-03-19T08:12:23;5.70;;;5.20;;
14849;SDS011;7517;48.400;11.770;2023-03-19T08:14:50;6.50;;;5.90;;
14849;SDS011;7517;48.400;11.770;2023-03-19T08:17:18;9.33;;;6.67;;
14849;SDS011;7517;48.400;11.770;2023-03-19T08:19:46;7.67;;;5.83;;
14849;SDS011;7517;48.400;11.770;2023-03-19T08:22:13;5.83;;;4.50;;
14849;SDS011;7517;48.400;11.770;2023-03-19T08:24:41;5.93;;;5.00;;
14849;SDS011;7517;48.400;11.770;2023-03-19T08:27:11;7.33;;;4.20;;
14849;SDS011;7517;48.400;11.770;2023-03-19T08:29:38;3.67;;;3.33;;
14849;SDS011;7517;48.400;11.770;2023-03-19T08:32:06;3.37;;;3.03;;
14849;SDS011;7517;48.400;11.770;2023-03-19T08:34:34;3.23;;;2.70;;
14849;SDS011;7517;48.400;11.770;2023-03-19T08:37:02;3.87;;;3.13;;
14849;SDS011;7517;48.400;11.770;2023-03-19T08:39:29;3.00;;;2.43;;
14849;SDS011;7517;48.400;11.770;2023-03-19T08:41:57;3.20;;;2.67;;
14849;SDS011;7517;48.400;11.770;2023-03-19T08:44:27;2.67;;;2.40;;
14849;SDS011;7517;48.400;11.770;2023-03-19T08:46:54;3.07;;;2.30;;
14849;SDS011;7517;48.400;11.770;2023-03-19T08:49:21;2.63;;;2.43;;
14849;SDS011;7517;48.400;11.770;2023-03-19T08:51:49;2.50;;;2.23;;
14849;SDS011;7517;48.400;11.770;2023-03-19T08:54:16;2.10;;;2.00;;
14849;SDS011;7517;48.400;11.770;2023-03-19T08:56:44;2.90;;;2.33;;
14849;SDS011;7517;48.400;11.770;2023-03-19T08:59:12;2.63;;;2.43;;
14849;SDS011;7517;48.400;11.770;2023-03-19T09:01:41;2.30;;;2.13;;
14849;SDS011;7517;48.400;11.770;2023-03-19T09:04:08;2.80;;;2.37;;
14849;SDS011;7517;48.400;11.770;2023-03-19T09:06:36;2.10;;;2.00;;
14849;SDS011;7517;48.400;11.770;2023-03-19T09:09:04;2.13;;;1.93;;
14849;SDS011;7517;48.400;11.770;2023-03-19T09:11:32;1.93;;;1.80;;
14849;SDS011;7517;48.400;11.770;2023-03-19T09:14:01;1.80;;;1.70;;
14849;SDS011;7517;48.400;11.770;2023-03-19T09:16:28;1.70;;;1.60;;
14849;SDS011;7517;48.400;11.770;2023-03-19T09:18:58;1.90;;;1.50;;
14849;SDS011;7517;48.400;11.770;2023-03-19T09:21:25;1.53;;;1.43;;
14849;SDS011;7517;48.400;11.770;2023-03-19T09:23:52;1.60;;;1.50;;
14849;SDS011;7517;48.400;11.770;2023-03-19T09:26:20;2.43;;;1.53;;
14849;SDS011;7517;48.400;11.770;2023-03-19T09:28:47;2.00;;;1.90;;
14849;SDS011;7517;48.400;11.770;2023-03-19T09:31:15;2.00;;;1.80;;
14849;SDS011;7517;48.400;11.770;2023-03-19T09:33:42;1.67;;;1.57;;
14849;SDS011;7517;48.400;11.770;2023-03-19T09:36:11;1.90;;;1.60;;
14849;SDS011;7517;48.400;11.770;2023-03-19T09:38:39;1.60;;;1.50;;
14849;SDS011;7517;48.400;11.770;2023-03-19T09:41:08;1.80;;;1.70;;
14849;SDS011;7517;48.400;11.770;2023-03-19T09:43:50;1.73;;;1.63;;
14849;SDS011;7517;48.400;11.770;2023-03-19T09:46:28;1.80;;;1.70;;
14849;SDS011;7517;48.400;11.770;2023-03-19T09:49:13;1.70;;;1.60;;
14849;SDS011;7517;48.400;11.770;2023-03-19T09:51:51;1.90;;;1.80;;
14849;SDS011;7517;48.400;11.770;2023-03-19T09:54:26;1.60;;;1.50;;
14849;SDS011;7517;48.400;11.770;2023-03-19T09:56:59;1.90;;;1.63;;
14849;SDS011;7517;48.400;11.770;2023-03-19T09:59:26;1.47;;;1.37;;
14849;SDS011;7517;48.400;11.770;2023-03-19T10:01:56;1.50;;;1.40;;
14849;SDS011;7517;48.400;11.770;2023-03-19T10:04:47;1.90;;;1.30;;
14849;SDS011;7517;48.400;11.770;2023-03-19T10:07:36;1.50;;;1.40;;
14849;SDS011;7517;48.400;11.770;2023-03-19T10:10:31;1.63;;;1.53;;
14849;SDS011;7517;48.400;11.770;2023-03-19T10:13:16;1.73;;;1.47;;
14849;SDS011;7517;48.400;11.770;2023-03-19T10:15:59;1.37;;;1.27;;
14849;SDS011;7517;48.400;11.770;2023-03-19T10:18:28;2.00;;;1.70;;
14849;SDS011;7517;48.400;11.770;2023-03-19T10:21:02;1.47;;;1.37;;
14849;SDS011;7517;48.400;11.770;2023-03-19T10:23:42;1.70;;;1.60;;
14849;SDS011;7517;48.400;11.770;2023-03-19T10:26:14;1.80;;;1.70;;
14849;SDS011;7517;48.400;11.770;2023-03-19T10:28:45;1.50;;;1.40;;
14849;SDS011;7517;48.400;11.770;2023-03-19T10:31:24;1.43;;;1.30;;
14849;SDS011;7517;48.400;11.770;2023-03-19T10:33:59;1.40;;;1.30;;
14849;SDS011;7517;48.400;11.770;2023-03-19T10:36:48;1.30;;;1.20;;
14849;SDS011;7517;48.400;11.770;2023-03-19T10:39:24;1.37;;;1.27;;
14849;SDS011;7517;48.400;11.770;2023-03-19T10:41:52;1.70;;;1.60;;
14849;SDS011;7517;48.400;11.770;2023-03-19T10:44:34;2.43;;;1.63;;
14849;SDS011;7517;48.400;11.770;2023-03-19T10:47:11;2.40;;;1.67;;
14849;SDS011;7517;48.400;11.770;2023-03-19T10:49:40;1.37;;;1.27;;
14849;SDS011;7517;48.400;11.770;2023-03-19T10:52:15;1.47;;;1.37;;
14849;SDS011;7517;48.400;11.770;2023-03-19T10:54:50;1.60;;;1.20;;
14849;SDS011;7517;48.400;11.770;2023-03-19T10:57:24;1.60;;;1.50;;
14849;SDS011;7517;48.400;11.770;2023-03-19T10:59:55;2.60;;;1.40;;
14849;SDS011;7517;48.400;11.770;2023-03-19T11:02:30;1.27;;;1.17;;
14849;SDS011;7517;48.400;11.770;2023-03-19T11:05:05;2.13;;;1.37;;
14849;SDS011;7517;48.400;11.770;2023-03-19T11:07:44;1.40;;;1.30;;
14849;SDS011;7517;48.400;11.770;2023-03-19T11:10:16;2.27;;;1.30;;
14849;SDS011;7517;48.400;11.770;2023-03-19T11:12:51;1.07;;;1.07;;
14849;SDS011;7517;48.400;11.770;2023-03-19T11:15:22;1.10;;;1.10;;
14849;SDS011;7517;48.400;11.770;2023-03-19T11:17:55;1.03;;;1.00;;
14849;SDS011;7517;48.400;11.770;2023-03-19T11:20:26;1.67;;;1.57;;
14849;SDS011;7517;48.400;11.770;2023-03-19T11:22:58;1.37;;;1.27;;
14849;SDS011;7517;48.400;11.770;2023-03-19T11:25:33;1.10;;;1.10;;
14849;SDS011;7517;48.400;11.770;2023-03-19T11:28:05;1.77;;;1.63;;
14849;SDS011;7517;48.400;11.770;2023-03-19T11:30:38;1.30;;;1.30;;
14849;SDS011;7517;48.400;11.770;2023-03-19T11:36:24;1.53;;;1.03;;
14849;SDS011;7517;48.400;11.770;2023-03-19T11:39:04;1.33;;;1.00;;
14849;SDS011;7517;48.400;11.770;2023-03-19T11:41:52;1.10;;;1.00;;
14849;SDS011;7517;48.400;11.770;2023-03-19T11:45:02;1.10;;;1.00;;
14849;SDS011;7517;48.400;11.770;2023-03-19T11:47:53;2.10;;;1.20;;
14849;SDS011;7517;48.400;11.770;2023-03-19T11:50:48;0.97;;;0.87;;
14849;SDS011;7517;48.400;11.770;2023-03-19T11:53:27;0.90;;;0.90;;
14849;SDS011;7517;48.400;11.770;2023-03-19T11:56:19;1.10;;;0.87;;
14849;SDS011;7517;48.400;11.770;2023-03-19T11:59:11;1.33;;;0.93;;
14849;SDS011;7517;48.400;11.770;2023-03-19T12:02:04;0.73;;;0.70;;
14849;SDS011;7517;48.400;11.770;2023-03-19T12:05:12;1.10;;;1.00;;
14849;SDS011;7517;48.400;11.770;2023-03-19T12:08:17;2.17;;;0.90;;
14849;SDS011;7517;48.400;11.770;2023-03-19T12:11:02;0.90;;;0.90;;
14849;SDS011;7517;48.400;11.770;2023-03-19T12:13:54;1.57;;;0.97;;
14849;SDS011;7517;48.400;11.770;2023-03-19T12:16:53;0.87;;;0.87;;
14849;SDS011;7517;48.400;11.770;2023-03-19T12:22:51;1.33;;;1.07;;
14849;SDS011;7517;48.400;11.770;2023-03-19T12:25:39;1.37;;;1.27;;
14849;SDS011;7517;48.400;11.770;2023-03-19T12:28:29;0.77;;;0.77;;
14849;SDS011;7517;48.400;11.770;2023-03-19T12:34:50;1.10;;;1.00;;
14849;SDS011;7517;48.400;11.770;2023-03-19T12:37:25;1.20;;;1.00;;
14849;SDS011;7517;48.400;11.770;2023-03-19T12:40:11;1.20;;;1.10;;
14849;SDS011;7517;48.400;11.770;2023-03-19T12:43:03;0.87;;;0.87;;
14849;SDS011;7517;48.400;11.770;2023-03-19T12:45:43;1.37;;;0.90;;
14849;SDS011;7517;48.400;11.770;2023-03-19T12:48:24;1.07;;;1.00;;
14849;SDS011;7517;48.400;11.770;2023-03-19T12:51:01;1.03;;;0.93;;
14849;SDS011;7517;48.400;11.770;2023-03-19T12:53:38;1.37;;;1.00;;
14849;SDS011;7517;48.400;11.770;2023-03-19T12:56:22;0.77;;;0.77;;
14849;SDS011;7517;48.400;11.770;2023-03-19T12:59:02;1.23;;;1.00;;
14849;SDS011;7517;48.400;11.770;2023-03-19T13:01:56;1.00;;;1.00;;
14849;SDS011;7517;48.400;11.770;2023-03-19T13:04:45;1.40;;;1.10;;
14849;SDS011;7517;48.400;11.770;2023-03-19T13:07:25;1.77;;;1.00;;
14849;SDS011;7517;48.400;11.770;2023-03-19T13:10:05;1.20;;;1.10;;
14849;SDS011;7517;48.400;11.770;2023-03-19T13:12:43;1.50;;;1.00;;
14849;SDS011;7517;48.400;11.770;2023-03-19T13:15:22;1.07;;;0.97;;
14849;SDS011;7517;48.400;11.770;2023-03-19T13:18:02;1.10;;;1.10;;
14849;SDS011;7517;48.400;11.770;2023-03-19T13:21:05;1.50;;;1.40;;
14849;SDS011;7517;48.400;11.770;2023-03-19T13:23:51;2.43;;;1.20;;
14849;SDS011;7517;48.400;11.770;2023-03-19T13:26:49;1.30;;;1.10;;
14849;SDS011;7517;48.400;11.770;2023-03-19T13:29:25;1.87;;;1.10;;
14849;SDS011;7517;48.400;11.770;2023-03-19T13:32:06;1.47;;;1.10;;
14849;SDS011;7517;48.400;11.770;2023-03-19T13:38:17;1.27;;;1.17;;
14849;SDS011;7517;48.400;11.770;2023-03-19T13:40:57;1.53;;;1.43;;
14849;SDS011;7517;48.400;11.770;2023-03-19T13:46:40;1.30;;;1.20;;
14849;SDS011;7517;48.400;11.770;2023-03-19T13:52:45;1.33;;;1.23;;
14849;SDS011;7517;48.400;11.770;2023-03-19T13:55:30;1.20;;;1.10;;
14849;SDS011;7517;48.400;11.770;2023-03-19T13:58:15;2.00;;;1.10;;
14849;SDS011;7517;48.400;11.770;2023-03-19T14:01:04;1.10;;;1.10;;
14849;SDS011;7517;48.400;11.770;2023-03-19T14:03:34;1.00;;;1.00;;
14849;SDS011;7517;48.400;11.770;2023-03-19T14:08:58;2.00;;;1.10;;
14849;SDS011;7517;48.400;11.770;2023-03-19T14:11:35;1.13;;;1.10;;
14849;SDS011;7517;48.400;11.770;2023-03-19T14:14:03;1.87;;;1.30;;
14849;SDS011;7517;48.400;11.770;2023-03-19T14:16:40;1.23;;;1.10;;
14849;SDS011;7517;48.400;11.770;2023-03-19T14:19:14;1.97;;;1.37;;
14849;SDS011;7517;48.400;11.770;2023-03-19T14:22:00;1.30;;;1.20;;
14849;SDS011;7517;48.400;11.770;2023-03-19T14:24:53;0.83;;;0.83;;
14849;SDS011;7517;48.400;11.770;2023-03-19T14:27:43;1.60;;;1.10;;
14849;SDS011;7517;48.400;11.770;2023-03-19T14:30:23;1.10;;;1.00;;
14849;SDS011;7517;48.400;11.770;2023-03-19T14:33:04;1.20;;;1.10;;
14849;SDS011;7517;48.400;11.770;2023-03-19T14:35:54;0.93;;;0.93;;
14849;SDS011;7517;48.400;11.770;2023-03-19T14:38:37;0.93;;;0.90;;
14849;SDS011;7517;48.400;11.770;2023-03-19T14:41:16;1.40;;;0.80;;
14849;SDS011;7517;48.400;11.770;2023-03-19T14:54:22;0.80;;;0.80;;
14849;SDS011;7517;48.400;11.770;2023-03-19T14:57:06;1.40;;;1.30;;
14849;SDS011;7517;48.400;11.770;2023-03-19T14:59:50;0.90;;;0.90;;
14849;SDS011;7517;48.400;11.770;2023-03-19T15:02:37;1.30;;;1.13;;
14849;SDS011;7517;48.400;11.770;2023-03-19T15:05:19;1.17;;;0.97;;
14849;SDS011;7517;48.400;11.770;2023-03-19T15:07:55;1.13;;;0.90;;
14849;SDS011;7517;48.400;11.770;2023-03-19T15:10:27;1.20;;;1.10;;
14849;SDS011;7517;48.400;11.770;2023-03-19T15:13:15;0.80;;;0.80;;
14849;SDS011;7517;48.400;11.770;2023-03-19T15:16:18;1.27;;;1.10;;
14849;SDS011;7517;48.400;11.770;2023-03-19T15:18:57;0.83;;;0.83;;
14849;SDS011;7517;48.400;11.770;2023-03-19T15:21:29;0.80;;;0.80;;
14849;SDS011;7517;48.400;11.770;2023-03-19T15:24:01;1.27;;;1.17;;
14849;SDS011;7517;48.400;11.770;2023-03-19T15:26:43;0.73;;;0.73;;
14849;SDS011;7517;48.400;11.770;2023-03-19T15:29:15;1.07;;;0.97;;
14849;SDS011;7517;48.400;11.770;2023-03-19T15:32:07;1.40;;;1.03;;
14849;SDS011;7517;48.400;11.770;2023-03-19T15:34:38;1.57;;;1.00;;
14849;SDS011;7517;48.400;11.770;2023-03-19T15:37:07;1.47;;;1.33;;
14849;SDS011;7517;48.400;11.770;2023-03-19T15:39:41;1.53;;;1.20;;
14849;SDS011;7517;48.400;11.770;2023-03-19T15:42:14;1.57;;;1.00;;
14849;SDS011;7517;48.400;11.770;2023-03-19T15:44:45;2.20;;;1.17;;
14849;SDS011;7517;48.400;11.770;2023-03-19T15:47:20;2.77;;;1.20;;
14849;SDS011;7517;48.400;11.770;2023-03-19T15:49:58;0.80;;;0.80;;
14849;SDS011;7517;48.400;11.770;2023-03-19T15:52:33;1.37;;;1.10;;
14849;SDS011;7517;48.400;11.770;2023-03-19T15:55:10;1.30;;;1.20;;